sensor_id;sensor_type;location;lat;lon;timestamp;P1;durP1;ratioP1;P2;durP2;ratioP2
28519;SDS011;15732;48.534;20.382;2022-12-07T00:01:30;6.25;;;2.78;;
28519;SDS011;15732;48.534;20.382;2022-12-07T00:03:59;8.32;;;3.25;;
28519;SDS011;15732;48.534;20.382;2022-12-07T00:06:31;7.72;;;3.35;;
28519;SDS011;15732;48.534;20.382;2022-12-07T00:08:58;11.63;;;4.28;;
28519;SDS011;15732;48.534;20.382;2022-12-07T00:11:25;7.70;;;3.67;;
28519;SDS011;15732;48.534;20.382;2022-12-07T00:13:59;4.95;;;2.72;;
28519;SDS011;15732;48.534;20.382;2022-12-07T00:16:28;24.92;;;7.75;;
28519;SDS011;15732;48.534;20.382;2022-12-07T00:21:26;26.35;;;8.30;;
28519;SDS011;15732;48.534;20.382;2022-12-07T00:23:55;23.58;;;9.43;;
28519;SDS011;15732;48.534;20.382;2022-12-07T00:26:28;24.70;;;9.63;;
28519;SDS011;15732;48.534;20.382;2022-12-07T00:28:58;11.43;;;4.70;;
28519;SDS011;15732;48.534;20.382;2022-12-07T00:31:29;9.80;;;4.00;;
28519;SDS011;15732;48.534;20.382;2022-12-07T00:33:59;25.85;;;4.25;;
28519;SDS011;15732;48.534;20.382;2022-12-07T00:36:26;26.65;;;2.40;;
28519;SDS011;15732;48.534;20.382;2022-12-07T00:38:54;8.60;;;2.00;;
28519;SDS011;15732;48.534;20.382;2022-12-07T00:41:22;3.42;;;2.08;;
28519;SDS011;15732;48.534;20.382;2022-12-07T00:43:50;4.00;;;1.70;;
28519;SDS011;15732;48.534;20.382;2022-12-07T00:46:18;5.38;;;2.17;;
28519;SDS011;15732;48.534;20.382;2022-12-07T00:48:47;4.70;;;2.17;;
28519;SDS011;15732;48.534;20.382;2022-12-07T00:51:15;7.50;;;2.15;;
28519;SDS011;15732;48.534;20.382;2022-12-07T00:53:43;2.78;;;1.33;;
28519;SDS011;15732;48.534;20.382;2022-12-07T00:56:14;4.78;;;1.63;;
28519;SDS011;15732;48.534;20.382;2022-12-07T00:58:48;7.40;;;2.83;;
28519;SDS011;15732;48.534;20.382;2022-12-07T01:01:19;10.00;;;3.03;;
28519;SDS011;15732;48.534;20.382;2022-12-07T01:03:47;3.83;;;1.92;;
28519;SDS011;15732;48.534;20.382;2022-12-07T01:06:15;2.65;;;1.55;;
28519;SDS011;15732;48.534;20.382;2022-12-07T01:08:44;4.00;;;1.42;;
28519;SDS011;15732;48.534;20.382;2022-12-07T01:11:15;5.22;;;2.08;;
28519;SDS011;15732;48.534;20.382;2022-12-07T01:13:44;3.45;;;2.00;;
28519;SDS011;15732;48.534;20.382;2022-12-07T01:16:13;6.22;;;2.88;;
28519;SDS011;15732;48.534;20.382;2022-12-07T01:18:41;4.70;;;1.55;;
28519;SDS011;15732;48.534;20.382;2022-12-07T01:21:13;5.10;;;2.10;;
28519;SDS011;15732;48.534;20.382;2022-12-07T01:23:41;5.13;;;2.05;;
28519;SDS011;15732;48.534;20.382;2022-12-07T01:26:10;4.85;;;2.22;;
28519;SDS011;15732;48.534;20.382;2022-12-07T01:28:38;4.65;;;1.73;;
28519;SDS011;15732;48.534;20.382;2022-12-07T01:31:15;12.52;;;4.18;;
28519;SDS011;15732;48.534;20.382;2022-12-07T01:33:47;11.68;;;5.40;;
28519;SDS011;15732;48.534;20.382;2022-12-07T01:36:20;24.40;;;8.57;;
28519;SDS011;15732;48.534;20.382;2022-12-07T01:38:50;9.75;;;2.88;;
28519;SDS011;15732;48.534;20.382;2022-12-07T01:41:20;6.20;;;2.55;;
28519;SDS011;15732;48.534;20.382;2022-12-07T01:46:35;8.55;;;2.10;;
28519;SDS011;15732;48.534;20.382;2022-12-07T01:49:03;7.03;;;2.58;;
28519;SDS011;15732;48.534;20.382;2022-12-07T01:51:36;4.75;;;2.00;;
28519;SDS011;15732;48.534;20.382;2022-12-07T01:54:04;6.53;;;2.03;;
28519;SDS011;15732;48.534;20.382;2022-12-07T01:56:32;9.07;;;2.95;;
28519;SDS011;15732;48.534;20.382;2022-12-07T01:59:00;8.03;;;3.43;;
28519;SDS011;15732;48.534;20.382;2022-12-07T02:01:27;9.20;;;3.00;;
28519;SDS011;15732;48.534;20.382;2022-12-07T02:03:55;6.38;;;2.80;;
28519;SDS011;15732;48.534;20.382;2022-12-07T02:06:22;8.10;;;3.35;;
28519;SDS011;15732;48.534;20.382;2022-12-07T02:08:51;8.93;;;2.75;;
28519;SDS011;15732;48.534;20.382;2022-12-07T02:11:19;6.63;;;2.90;;
28519;SDS011;15732;48.534;20.382;2022-12-07T02:13:47;3.63;;;1.98;;
28519;SDS011;15732;48.534;20.382;2022-12-07T02:16:29;4.70;;;2.47;;
28519;SDS011;15732;48.534;20.382;2022-12-07T02:19:25;7.90;;;3.78;;
28519;SDS011;15732;48.534;20.382;2022-12-07T02:25:16;12.40;;;4.50;;
28519;SDS011;15732;48.534;20.382;2022-12-07T02:30:42;4.35;;;1.98;;
28519;SDS011;15732;48.534;20.382;2022-12-07T02:33:20;6.70;;;2.92;;
28519;SDS011;15732;48.534;20.382;2022-12-07T02:36:06;4.95;;;2.15;;
28519;SDS011;15732;48.534;20.382;2022-12-07T02:38:39;3.92;;;1.70;;
28519;SDS011;15732;48.534;20.382;2022-12-07T02:41:20;6.20;;;2.40;;
28519;SDS011;15732;48.534;20.382;2022-12-07T02:44:00;5.38;;;2.65;;
28519;SDS011;15732;48.534;20.382;2022-12-07T02:46:32;6.25;;;2.83;;
28519;SDS011;15732;48.534;20.382;2022-12-07T02:49:03;8.85;;;3.58;;
28519;SDS011;15732;48.534;20.382;2022-12-07T02:53:59;4.63;;;1.83;;
28519;SDS011;15732;48.534;20.382;2022-12-07T03:01:57;3.63;;;1.80;;
28519;SDS011;15732;48.534;20.382;2022-12-07T03:04:42;4.53;;;2.00;;
28519;SDS011;15732;48.534;20.382;2022-12-07T03:12:32;6.28;;;2.58;;
28519;SDS011;15732;48.534;20.382;2022-12-07T03:15:21;7.30;;;2.65;;
28519;SDS011;15732;48.534;20.382;2022-12-07T03:17:55;6.22;;;2.58;;
28519;SDS011;15732;48.534;20.382;2022-12-07T03:20:26;6.90;;;2.53;;
28519;SDS011;15732;48.534;20.382;2022-12-07T03:25:25;4.85;;;2.30;;
28519;SDS011;15732;48.534;20.382;2022-12-07T03:27:57;5.18;;;2.45;;
28519;SDS011;15732;48.534;20.382;2022-12-07T03:30:55;8.93;;;3.33;;
28519;SDS011;15732;48.534;20.382;2022-12-07T03:33:37;5.38;;;2.42;;
28519;SDS011;15732;48.534;20.382;2022-12-07T03:36:11;6.65;;;2.47;;
28519;SDS011;15732;48.534;20.382;2022-12-07T03:38:48;7.50;;;2.53;;
28519;SDS011;15732;48.534;20.382;2022-12-07T03:43:50;6.07;;;2.70;;
28519;SDS011;15732;48.534;20.382;2022-12-07T03:57:35;8.82;;;3.63;;
28519;SDS011;15732;48.534;20.382;2022-12-07T04:00:04;6.93;;;2.20;;
28519;SDS011;15732;48.534;20.382;2022-12-07T04:02:33;10.75;;;2.47;;
28519;SDS011;15732;48.534;20.382;2022-12-07T04:05:01;8.60;;;3.60;;
28519;SDS011;15732;48.534;20.382;2022-12-07T04:07:28;6.55;;;2.88;;
28519;SDS011;15732;48.534;20.382;2022-12-07T04:09:55;5.70;;;1.80;;
28519;SDS011;15732;48.534;20.382;2022-12-07T04:12:23;5.20;;;2.25;;
28519;SDS011;15732;48.534;20.382;2022-12-07T04:14:54;5.30;;;2.55;;
28519;SDS011;15732;48.534;20.382;2022-12-07T04:17:21;6.55;;;2.42;;
28519;SDS011;15732;48.534;20.382;2022-12-07T04:19:48;7.68;;;2.50;;
28519;SDS011;15732;48.534;20.382;2022-12-07T04:22:20;5.60;;;2.05;;
28519;SDS011;15732;48.534;20.382;2022-12-07T04:24:47;4.82;;;2.25;;
28519;SDS011;15732;48.534;20.382;2022-12-07T04:27:15;4.30;;;1.73;;
28519;SDS011;15732;48.534;20.382;2022-12-07T04:29:42;8.52;;;2.42;;
28519;SDS011;15732;48.534;20.382;2022-12-07T04:32:08;6.78;;;2.35;;
28519;SDS011;15732;48.534;20.382;2022-12-07T04:34:36;3.90;;;1.90;;
28519;SDS011;15732;48.534;20.382;2022-12-07T04:37:07;7.65;;;3.22;;
28519;SDS011;15732;48.534;20.382;2022-12-07T04:39:34;5.35;;;2.67;;
28519;SDS011;15732;48.534;20.382;2022-12-07T04:42:01;5.82;;;2.22;;
28519;SDS011;15732;48.534;20.382;2022-12-07T04:44:29;16.67;;;5.77;;
28519;SDS011;15732;48.534;20.382;2022-12-07T04:46:56;11.55;;;5.47;;
28519;SDS011;15732;48.534;20.382;2022-12-07T04:49:24;13.65;;;5.32;;
28519;SDS011;15732;48.534;20.382;2022-12-07T04:51:51;8.57;;;4.65;;
28519;SDS011;15732;48.534;20.382;2022-12-07T04:54:21;10.95;;;4.20;;
28519;SDS011;15732;48.534;20.382;2022-12-07T04:56:49;6.55;;;3.72;;
28519;SDS011;15732;48.534;20.382;2022-12-07T04:59:16;8.05;;;3.08;;
28519;SDS011;15732;48.534;20.382;2022-12-07T05:01:44;2.83;;;1.48;;
28519;SDS011;15732;48.534;20.382;2022-12-07T05:04:11;5.72;;;2.53;;
28519;SDS011;15732;48.534;20.382;2022-12-07T05:06:44;10.70;;;2.67;;
28519;SDS011;15732;48.534;20.382;2022-12-07T05:09:11;5.93;;;2.05;;
28519;SDS011;15732;48.534;20.382;2022-12-07T05:11:39;3.67;;;1.80;;
28519;SDS011;15732;48.534;20.382;2022-12-07T05:16:40;4.90;;;1.67;;
28519;SDS011;15732;48.534;20.382;2022-12-07T05:19:11;4.57;;;1.58;;
28519;SDS011;15732;48.534;20.382;2022-12-07T05:21:39;3.63;;;1.65;;
28519;SDS011;15732;48.534;20.382;2022-12-07T05:24:07;3.60;;;2.03;;
28519;SDS011;15732;48.534;20.382;2022-12-07T05:26:36;5.07;;;2.05;;
28519;SDS011;15732;48.534;20.382;2022-12-07T05:29:07;5.75;;;2.00;;
28519;SDS011;15732;48.534;20.382;2022-12-07T05:31:38;4.60;;;2.45;;
28519;SDS011;15732;48.534;20.382;2022-12-07T05:34:05;4.10;;;1.80;;
28519;SDS011;15732;48.534;20.382;2022-12-07T05:36:37;5.55;;;1.75;;
28519;SDS011;15732;48.534;20.382;2022-12-07T05:39:04;4.00;;;1.88;;
28519;SDS011;15732;48.534;20.382;2022-12-07T05:41:31;6.15;;;2.35;;
28519;SDS011;15732;48.534;20.382;2022-12-07T05:44:16;3.85;;;1.58;;
28519;SDS011;15732;48.534;20.382;2022-12-07T05:46:44;5.85;;;2.33;;
28519;SDS011;15732;48.534;20.382;2022-12-07T05:49:11;9.68;;;4.50;;
28519;SDS011;15732;48.534;20.382;2022-12-07T05:51:38;5.60;;;1.90;;
28519;SDS011;15732;48.534;20.382;2022-12-07T05:54:06;2.97;;;1.60;;
28519;SDS011;15732;48.534;20.382;2022-12-07T05:56:37;4.07;;;1.65;;
28519;SDS011;15732;48.534;20.382;2022-12-07T05:59:04;4.25;;;1.77;;
28519;SDS011;15732;48.534;20.382;2022-12-07T06:01:57;4.65;;;2.10;;
28519;SDS011;15732;48.534;20.382;2022-12-07T06:04:29;8.07;;;3.03;;
28519;SDS011;15732;48.534;20.382;2022-12-07T06:07:13;5.22;;;1.98;;
28519;SDS011;15732;48.534;20.382;2022-12-07T06:09:41;4.40;;;1.88;;
28519;SDS011;15732;48.534;20.382;2022-12-07T06:12:09;3.10;;;1.33;;
28519;SDS011;15732;48.534;20.382;2022-12-07T06:14:54;6.97;;;2.58;;
28519;SDS011;15732;48.534;20.382;2022-12-07T06:17:21;4.75;;;1.90;;
28519;SDS011;15732;48.534;20.382;2022-12-07T06:19:48;5.47;;;2.13;;
28519;SDS011;15732;48.534;20.382;2022-12-07T06:22:15;4.10;;;2.05;;
28519;SDS011;15732;48.534;20.382;2022-12-07T06:24:46;6.03;;;2.45;;
28519;SDS011;15732;48.534;20.382;2022-12-07T06:27:13;3.72;;;1.52;;
28519;SDS011;15732;48.534;20.382;2022-12-07T06:29:40;5.72;;;2.60;;
28519;SDS011;15732;48.534;20.382;2022-12-07T06:32:08;6.63;;;2.80;;
28519;SDS011;15732;48.534;20.382;2022-12-07T06:34:39;7.18;;;3.30;;
28519;SDS011;15732;48.534;20.382;2022-12-07T06:37:06;6.95;;;2.83;;
28519;SDS011;15732;48.534;20.382;2022-12-07T06:39:33;6.28;;;2.03;;
28519;SDS011;15732;48.534;20.382;2022-12-07T06:42:01;8.07;;;2.22;;
28519;SDS011;15732;48.534;20.382;2022-12-07T06:44:28;10.57;;;3.40;;
28519;SDS011;15732;48.534;20.382;2022-12-07T06:46:55;7.07;;;3.20;;
28519;SDS011;15732;48.534;20.382;2022-12-07T06:49:23;7.72;;;3.50;;
28519;SDS011;15732;48.534;20.382;2022-12-07T06:51:54;9.10;;;3.80;;
28519;SDS011;15732;48.534;20.382;2022-12-07T06:54:21;7.97;;;3.78;;
28519;SDS011;15732;48.534;20.382;2022-12-07T06:56:49;15.30;;;4.65;;
28519;SDS011;15732;48.534;20.382;2022-12-07T06:59:16;13.05;;;3.50;;
28519;SDS011;15732;48.534;20.382;2022-12-07T07:01:43;11.68;;;3.83;;
28519;SDS011;15732;48.534;20.382;2022-12-07T07:04:10;12.70;;;5.53;;
28519;SDS011;15732;48.534;20.382;2022-12-07T07:06:41;14.00;;;4.75;;
28519;SDS011;15732;48.534;20.382;2022-12-07T07:09:09;14.80;;;5.82;;
28519;SDS011;15732;48.534;20.382;2022-12-07T07:11:36;9.73;;;5.68;;
28519;SDS011;15732;48.534;20.382;2022-12-07T07:14:03;14.38;;;6.75;;
28519;SDS011;15732;48.534;20.382;2022-12-07T07:16:31;18.85;;;5.72;;
28519;SDS011;15732;48.534;20.382;2022-12-07T07:18:58;13.48;;;5.78;;
28519;SDS011;15732;48.534;20.382;2022-12-07T07:21:25;9.68;;;3.75;;
28519;SDS011;15732;48.534;20.382;2022-12-07T07:23:53;19.08;;;8.15;;
28519;SDS011;15732;48.534;20.382;2022-12-07T07:26:25;13.85;;;7.13;;
28519;SDS011;15732;48.534;20.382;2022-12-07T07:28:52;9.60;;;3.40;;
28519;SDS011;15732;48.534;20.382;2022-12-07T07:31:19;12.25;;;5.40;;
28519;SDS011;15732;48.534;20.382;2022-12-07T07:33:46;15.88;;;6.43;;
28519;SDS011;15732;48.534;20.382;2022-12-07T07:36:14;14.75;;;5.47;;
28519;SDS011;15732;48.534;20.382;2022-12-07T07:38:44;9.43;;;5.40;;
28519;SDS011;15732;48.534;20.382;2022-12-07T07:41:12;11.43;;;6.05;;
28519;SDS011;15732;48.534;20.382;2022-12-07T07:43:39;13.88;;;4.50;;
28519;SDS011;15732;48.534;20.382;2022-12-07T07:46:06;11.68;;;5.45;;
28519;SDS011;15732;48.534;20.382;2022-12-07T07:48:39;14.35;;;5.30;;
28519;SDS011;15732;48.534;20.382;2022-12-07T07:51:06;9.93;;;4.97;;
28519;SDS011;15732;48.534;20.382;2022-12-07T07:56:04;15.85;;;5.15;;
28519;SDS011;15732;48.534;20.382;2022-12-07T07:58:34;13.25;;;5.07;;
28519;SDS011;15732;48.534;20.382;2022-12-07T08:01:05;15.27;;;6.23;;
28519;SDS011;15732;48.534;20.382;2022-12-07T08:03:33;8.82;;;4.28;;
28519;SDS011;15732;48.534;20.382;2022-12-07T08:06:01;12.57;;;5.53;;
28519;SDS011;15732;48.534;20.382;2022-12-07T08:08:29;14.48;;;5.70;;
28519;SDS011;15732;48.534;20.382;2022-12-07T08:10:56;17.70;;;7.07;;
28519;SDS011;15732;48.534;20.382;2022-12-07T08:13:29;16.20;;;6.20;;
28519;SDS011;15732;48.534;20.382;2022-12-07T08:16:08;17.48;;;7.03;;
28519;SDS011;15732;48.534;20.382;2022-12-07T08:18:35;16.45;;;6.10;;
28519;SDS011;15732;48.534;20.382;2022-12-07T08:21:03;14.82;;;7.32;;
28519;SDS011;15732;48.534;20.382;2022-12-07T08:26:03;36.88;;;13.35;;
28519;SDS011;15732;48.534;20.382;2022-12-07T08:28:32;34.45;;;13.90;;
28519;SDS011;15732;48.534;20.382;2022-12-07T08:31:06;27.85;;;10.60;;
28519;SDS011;15732;48.534;20.382;2022-12-07T08:33:37;12.15;;;6.32;;
28519;SDS011;15732;48.534;20.382;2022-12-07T08:36:06;8.50;;;4.43;;
28519;SDS011;15732;48.534;20.382;2022-12-07T08:38:37;15.98;;;6.18;;
28519;SDS011;15732;48.534;20.382;2022-12-07T08:41:06;13.70;;;6.75;;
28519;SDS011;15732;48.534;20.382;2022-12-07T08:43:34;15.15;;;5.60;;
28519;SDS011;15732;48.534;20.382;2022-12-07T08:46:06;13.57;;;7.00;;
28519;SDS011;15732;48.534;20.382;2022-12-07T08:48:37;11.57;;;5.47;;
28519;SDS011;15732;48.534;20.382;2022-12-07T08:51:17;16.20;;;7.57;;
28519;SDS011;15732;48.534;20.382;2022-12-07T08:53:46;12.93;;;6.43;;
28519;SDS011;15732;48.534;20.382;2022-12-07T08:56:17;19.25;;;7.90;;
28519;SDS011;15732;48.534;20.382;2022-12-07T08:58:44;16.88;;;8.05;;
28519;SDS011;15732;48.534;20.382;2022-12-07T09:01:12;16.05;;;6.50;;
28519;SDS011;15732;48.534;20.382;2022-12-07T09:03:39;13.95;;;6.68;;
28519;SDS011;15732;48.534;20.382;2022-12-07T09:06:10;14.73;;;6.68;;
28519;SDS011;15732;48.534;20.382;2022-12-07T09:08:39;10.77;;;5.25;;
28519;SDS011;15732;48.534;20.382;2022-12-07T09:11:10;14.50;;;5.28;;
28519;SDS011;15732;48.534;20.382;2022-12-07T09:13:40;7.93;;;4.03;;
28519;SDS011;15732;48.534;20.382;2022-12-07T09:16:08;8.00;;;3.50;;
28519;SDS011;15732;48.534;20.382;2022-12-07T09:18:38;10.23;;;4.65;;
28519;SDS011;15732;48.534;20.382;2022-12-07T09:21:07;13.68;;;3.83;;
28519;SDS011;15732;48.534;20.382;2022-12-07T09:23:35;9.52;;;4.32;;
28519;SDS011;15732;48.534;20.382;2022-12-07T09:26:05;11.32;;;5.18;;
28519;SDS011;15732;48.534;20.382;2022-12-07T09:28:35;9.35;;;3.83;;
28519;SDS011;15732;48.534;20.382;2022-12-07T09:31:03;14.43;;;2.75;;
28519;SDS011;15732;48.534;20.382;2022-12-07T09:33:37;9.63;;;3.67;;
28519;SDS011;15732;48.534;20.382;2022-12-07T09:36:04;6.78;;;3.65;;
28519;SDS011;15732;48.534;20.382;2022-12-07T09:38:33;13.32;;;5.13;;
28519;SDS011;15732;48.534;20.382;2022-12-07T09:41:07;8.73;;;4.03;;
28519;SDS011;15732;48.534;20.382;2022-12-07T09:43:44;8.27;;;4.55;;
28519;SDS011;15732;48.534;20.382;2022-12-07T09:46:39;12.88;;;4.65;;
28519;SDS011;15732;48.534;20.382;2022-12-07T09:49:16;7.63;;;3.83;;
28519;SDS011;15732;48.534;20.382;2022-12-07T09:51:47;7.32;;;2.83;;
28519;SDS011;15732;48.534;20.382;2022-12-07T09:54:14;8.95;;;3.97;;
28519;SDS011;15732;48.534;20.382;2022-12-07T09:56:45;5.30;;;2.42;;
28519;SDS011;15732;48.534;20.382;2022-12-07T09:59:15;9.63;;;3.35;;
28519;SDS011;15732;48.534;20.382;2022-12-07T10:04:24;8.75;;;3.15;;
28519;SDS011;15732;48.534;20.382;2022-12-07T10:06:58;7.03;;;2.97;;
28519;SDS011;15732;48.534;20.382;2022-12-07T10:09:29;4.38;;;2.10;;
28519;SDS011;15732;48.534;20.382;2022-12-07T10:12:04;7.35;;;2.88;;
28519;SDS011;15732;48.534;20.382;2022-12-07T10:14:37;7.35;;;2.65;;
28519;SDS011;15732;48.534;20.382;2022-12-07T10:18:13;7.88;;;3.30;;
28519;SDS011;15732;48.534;20.382;2022-12-07T10:20:18;7.47;;;2.30;;
28519;SDS011;15732;48.534;20.382;2022-12-07T10:23:01;4.80;;;2.35;;
28519;SDS011;15732;48.534;20.382;2022-12-07T10:25:35;6.95;;;2.80;;
28519;SDS011;15732;48.534;20.382;2022-12-07T10:30:33;6.30;;;2.63;;
28519;SDS011;15732;48.534;20.382;2022-12-07T10:35:58;5.20;;;2.45;;
28519;SDS011;15732;48.534;20.382;2022-12-07T10:38:27;5.20;;;2.80;;
28519;SDS011;15732;48.534;20.382;2022-12-07T10:41:05;6.78;;;3.28;;
28519;SDS011;15732;48.534;20.382;2022-12-07T10:43:33;5.13;;;2.20;;
28519;SDS011;15732;48.534;20.382;2022-12-07T10:46:22;3.58;;;1.85;;
28519;SDS011;15732;48.534;20.382;2022-12-07T10:52:06;3.85;;;1.88;;
28519;SDS011;15732;48.534;20.382;2022-12-07T11:00:21;5.30;;;2.03;;
28519;SDS011;15732;48.534;20.382;2022-12-07T11:11:23;2.83;;;1.55;;
28519;SDS011;15732;48.534;20.382;2022-12-07T11:14:10;8.05;;;3.88;;
28519;SDS011;15732;48.534;20.382;2022-12-07T11:16:59;24.92;;;9.32;;
28519;SDS011;15732;48.534;20.382;2022-12-07T11:22:36;4.13;;;1.80;;
28519;SDS011;15732;48.534;20.382;2022-12-07T11:39:04;7.53;;;1.73;;
28519;SDS011;15732;48.534;20.382;2022-12-07T11:41:51;4.55;;;1.55;;
28519;SDS011;15732;48.534;20.382;2022-12-07T11:44:27;9.88;;;3.70;;
28519;SDS011;15732;48.534;20.382;2022-12-07T11:52:55;10.27;;;4.22;;
28519;SDS011;15732;48.534;20.382;2022-12-07T12:03:45;5.72;;;2.53;;
28519;SDS011;15732;48.534;20.382;2022-12-07T12:06:37;6.18;;;2.35;;
28519;SDS011;15732;48.534;20.382;2022-12-07T12:23:24;4.05;;;2.05;;
28519;SDS011;15732;48.534;20.382;2022-12-07T12:26:01;8.35;;;3.20;;
28519;SDS011;15732;48.534;20.382;2022-12-07T12:28:31;3.35;;;1.55;;
28519;SDS011;15732;48.534;20.382;2022-12-07T12:31:07;12.10;;;4.30;;
28519;SDS011;15732;48.534;20.382;2022-12-07T12:33:51;8.93;;;3.30;;
28519;SDS011;15732;48.534;20.382;2022-12-07T12:55:20;1.35;;;0.70;;
28519;SDS011;15732;48.534;20.382;2022-12-07T12:57:47;2.58;;;1.15;;
28519;SDS011;15732;48.534;20.382;2022-12-07T13:01:42;1.80;;;1.00;;
28519;SDS011;15732;48.534;20.382;2022-12-07T13:03:58;2.78;;;1.63;;
28519;SDS011;15732;48.534;20.382;2022-12-07T13:08:56;2.50;;;1.13;;
28519;SDS011;15732;48.534;20.382;2022-12-07T13:14:35;23.20;;;8.57;;
28519;SDS011;15732;48.534;20.382;2022-12-07T13:16:59;11.70;;;2.70;;
28519;SDS011;15732;48.534;20.382;2022-12-07T13:22:34;5.45;;;2.25;;
28519;SDS011;15732;48.534;20.382;2022-12-07T13:25:12;7.93;;;2.72;;
28519;SDS011;15732;48.534;20.382;2022-12-07T13:28:32;3.95;;;1.10;;
28519;SDS011;15732;48.534;20.382;2022-12-07T13:30:55;5.53;;;2.50;;
28519;SDS011;15732;48.534;20.382;2022-12-07T13:33:40;3.60;;;1.80;;
28519;SDS011;15732;48.534;20.382;2022-12-07T13:36:30;2.28;;;0.80;;
28519;SDS011;15732;48.534;20.382;2022-12-07T13:39:20;3.92;;;2.22;;
28519;SDS011;15732;48.534;20.382;2022-12-07T13:41:50;2.63;;;1.40;;
28519;SDS011;15732;48.534;20.382;2022-12-07T13:44:24;4.20;;;1.83;;
28519;SDS011;15732;48.534;20.382;2022-12-07T13:47:13;4.93;;;1.92;;
28519;SDS011;15732;48.534;20.382;2022-12-07T13:49:51;7.78;;;1.92;;
28519;SDS011;15732;48.534;20.382;2022-12-07T13:52:26;4.25;;;1.95;;
28519;SDS011;15732;48.534;20.382;2022-12-07T13:57:31;4.30;;;1.52;;
28519;SDS011;15732;48.534;20.382;2022-12-07T14:00:03;11.45;;;5.13;;
28519;SDS011;15732;48.534;20.382;2022-12-07T14:02:57;17.52;;;6.30;;
28519;SDS011;15732;48.534;20.382;2022-12-07T14:05:26;9.60;;;4.93;;
28519;SDS011;15732;48.534;20.382;2022-12-07T14:12:59;5.75;;;2.03;;
28519;SDS011;15732;48.534;20.382;2022-12-07T14:15:31;2.28;;;1.20;;
28519;SDS011;15732;48.534;20.382;2022-12-07T14:18:00;1.92;;;0.93;;
28519;SDS011;15732;48.534;20.382;2022-12-07T14:23:01;2.20;;;1.15;;
28519;SDS011;15732;48.534;20.382;2022-12-07T14:25:47;2.20;;;0.80;;
28519;SDS011;15732;48.534;20.382;2022-12-07T14:28:26;3.22;;;1.48;;
28519;SDS011;15732;48.534;20.382;2022-12-07T14:30:57;1.60;;;1.02;;
28519;SDS011;15732;48.534;20.382;2022-12-07T14:33:26;4.05;;;1.88;;
28519;SDS011;15732;48.534;20.382;2022-12-07T14:35:54;3.40;;;1.25;;
28519;SDS011;15732;48.534;20.382;2022-12-07T14:38:24;3.13;;;1.30;;
28519;SDS011;15732;48.534;20.382;2022-12-07T14:40:52;2.85;;;1.13;;
28519;SDS011;15732;48.534;20.382;2022-12-07T14:46:07;14.38;;;4.60;;
28519;SDS011;15732;48.534;20.382;2022-12-07T14:48:35;2.70;;;1.30;;
28519;SDS011;15732;48.534;20.382;2022-12-07T14:51:04;4.35;;;1.65;;
28519;SDS011;15732;48.534;20.382;2022-12-07T14:53:34;4.35;;;1.38;;
28519;SDS011;15732;48.534;20.382;2022-12-07T14:56:04;2.78;;;1.10;;
28519;SDS011;15732;48.534;20.382;2022-12-07T14:58:32;3.67;;;1.65;;
28519;SDS011;15732;48.534;20.382;2022-12-07T15:00:59;3.30;;;1.55;;
28519;SDS011;15732;48.534;20.382;2022-12-07T15:03:26;3.90;;;2.70;;
28519;SDS011;15732;48.534;20.382;2022-12-07T15:05:53;4.38;;;1.48;;
28519;SDS011;15732;48.534;20.382;2022-12-07T15:08:20;1.85;;;1.00;;
28519;SDS011;15732;48.534;20.382;2022-12-07T15:10:48;5.75;;;1.75;;
28519;SDS011;15732;48.534;20.382;2022-12-07T15:13:15;7.20;;;2.25;;
28519;SDS011;15732;48.534;20.382;2022-12-07T15:16:01;8.40;;;3.65;;
28519;SDS011;15732;48.534;20.382;2022-12-07T15:18:29;9.23;;;2.90;;
28519;SDS011;15732;48.534;20.382;2022-12-07T15:20:56;2.92;;;1.58;;
28519;SDS011;15732;48.534;20.382;2022-12-07T15:23:23;6.32;;;2.35;;
28519;SDS011;15732;48.534;20.382;2022-12-07T15:25:52;7.90;;;3.35;;
28519;SDS011;15732;48.534;20.382;2022-12-07T15:28:19;7.90;;;3.58;;
28519;SDS011;15732;48.534;20.382;2022-12-07T15:30:47;10.48;;;4.35;;
28519;SDS011;15732;48.534;20.382;2022-12-07T15:33:15;6.53;;;2.80;;
28519;SDS011;15732;48.534;20.382;2022-12-07T15:35:43;9.45;;;2.88;;
28519;SDS011;15732;48.534;20.382;2022-12-07T15:38:12;6.20;;;2.90;;
28519;SDS011;15732;48.534;20.382;2022-12-07T15:40:39;6.43;;;2.72;;
28519;SDS011;15732;48.534;20.382;2022-12-07T15:43:08;10.30;;;3.90;;
28519;SDS011;15732;48.534;20.382;2022-12-07T15:45:55;7.75;;;3.53;;
28519;SDS011;15732;48.534;20.382;2022-12-07T15:48:23;13.15;;;5.70;;
28519;SDS011;15732;48.534;20.382;2022-12-07T15:50:50;20.75;;;8.52;;
28519;SDS011;15732;48.534;20.382;2022-12-07T15:53:18;16.45;;;7.20;;
28519;SDS011;15732;48.534;20.382;2022-12-07T15:55:47;19.58;;;8.57;;
28519;SDS011;15732;48.534;20.382;2022-12-07T15:58:14;26.77;;;11.98;;
28519;SDS011;15732;48.534;20.382;2022-12-07T16:00:42;54.30;;;25.20;;
28519;SDS011;15732;48.534;20.382;2022-12-07T16:03:08;78.95;;;31.67;;
28519;SDS011;15732;48.534;20.382;2022-12-07T16:05:36;88.43;;;32.20;;
28519;SDS011;15732;48.534;20.382;2022-12-07T16:08:04;58.70;;;22.05;;
28519;SDS011;15732;48.534;20.382;2022-12-07T16:10:33;36.38;;;14.85;;
28519;SDS011;15732;48.534;20.382;2022-12-07T16:13:00;103.20;;;35.97;;
28519;SDS011;15732;48.534;20.382;2022-12-07T16:15:27;41.42;;;17.25;;
28519;SDS011;15732;48.534;20.382;2022-12-07T16:17:55;43.75;;;18.58;;
28519;SDS011;15732;48.534;20.382;2022-12-07T16:20:22;45.83;;;16.67;;
28519;SDS011;15732;48.534;20.382;2022-12-07T16:22:51;16.40;;;7.07;;
28519;SDS011;15732;48.534;20.382;2022-12-07T16:25:19;19.52;;;8.10;;
28519;SDS011;15732;48.534;20.382;2022-12-07T16:27:46;14.73;;;6.88;;
28519;SDS011;15732;48.534;20.382;2022-12-07T16:30:14;17.40;;;7.03;;
28519;SDS011;15732;48.534;20.382;2022-12-07T16:32:42;26.88;;;13.80;;
28519;SDS011;15732;48.534;20.382;2022-12-07T16:35:09;74.65;;;28.33;;
28519;SDS011;15732;48.534;20.382;2022-12-07T16:37:37;63.60;;;25.33;;
28519;SDS011;15732;48.534;20.382;2022-12-07T16:40:05;39.33;;;14.95;;
28519;SDS011;15732;48.534;20.382;2022-12-07T16:42:35;29.65;;;12.52;;
28519;SDS011;15732;48.534;20.382;2022-12-07T16:45:02;31.02;;;14.30;;
28519;SDS011;15732;48.534;20.382;2022-12-07T16:47:30;38.88;;;14.88;;
28519;SDS011;15732;48.534;20.382;2022-12-07T16:49:58;23.98;;;10.57;;
28519;SDS011;15732;48.534;20.382;2022-12-07T16:52:25;28.17;;;11.70;;
28519;SDS011;15732;48.534;20.382;2022-12-07T16:54:52;17.48;;;7.82;;
28519;SDS011;15732;48.534;20.382;2022-12-07T16:57:20;22.25;;;8.20;;
28519;SDS011;15732;48.534;20.382;2022-12-07T16:59:47;26.10;;;10.15;;
28519;SDS011;15732;48.534;20.382;2022-12-07T17:02:16;32.75;;;11.15;;
28519;SDS011;15732;48.534;20.382;2022-12-07T17:04:42;39.03;;;14.80;;
28519;SDS011;15732;48.534;20.382;2022-12-07T17:07:09;28.60;;;13.10;;
28519;SDS011;15732;48.534;20.382;2022-12-07T17:09:37;26.58;;;10.10;;
28519;SDS011;15732;48.534;20.382;2022-12-07T17:12:04;36.13;;;15.82;;
28519;SDS011;15732;48.534;20.382;2022-12-07T17:14:32;46.67;;;14.57;;
28519;SDS011;15732;48.534;20.382;2022-12-07T17:17:18;56.50;;;20.60;;
28519;SDS011;15732;48.534;20.382;2022-12-07T17:19:45;52.10;;;18.23;;
28519;SDS011;15732;48.534;20.382;2022-12-07T17:22:14;52.88;;;20.25;;
28519;SDS011;15732;48.534;20.382;2022-12-07T17:24:41;44.83;;;19.10;;
28519;SDS011;15732;48.534;20.382;2022-12-07T17:27:08;44.90;;;19.63;;
28519;SDS011;15732;48.534;20.382;2022-12-07T17:29:36;81.68;;;27.83;;
28519;SDS011;15732;48.534;20.382;2022-12-07T17:32:03;52.22;;;24.25;;